sensor_id;sensor_type;location;lat;lon;timestamp;P1;durP1;ratioP1;P2;durP2;ratioP2
65035;SDS011;51603;49.300;8.880;2023-09-19T00:00:57;3.10;;;1.53;;
65035;SDS011;51603;49.300;8.880;2023-09-19T00:03:23;4.53;;;1.70;;
65035;SDS011;51603;49.300;8.880;2023-09-19T00:05:50;3.13;;;1.60;;
65035;SDS011;51603;49.300;8.880;2023-09-19T00:08:15;1.77;;;1.37;;
65035;SDS011;51603;49.300;8.880;2023-09-19T00:10:41;3.97;;;1.70;;
65035;SDS011;51603;49.300;8.880;2023-09-19T00:13:08;4.07;;;1.80;;
65035;SDS011;51603;49.300;8.880;2023-09-19T00:15:39;2.87;;;1.70;;
65035;SDS011;51603;49.300;8.880;2023-09-19T00:18:06;3.73;;;1.67;;
65035;SDS011;51603;49.300;8.880;2023-09-19T00:20:32;2.90;;;1.50;;
65035;SDS011;51603;49.300;8.880;2023-09-19T00:23:00;2.43;;;1.47;;
65035;SDS011;51603;49.300;8.880;2023-09-19T00:25:27;4.33;;;1.80;;
65035;SDS011;51603;49.300;8.880;2023-09-19T00:27:54;2.07;;;1.40;;
65035;SDS011;51603;49.300;8.880;2023-09-19T00:30:20;6.83;;;1.80;;
65035;SDS011;51603;49.300;8.880;2023-09-19T00:32:46;2.77;;;1.70;;
65035;SDS011;51603;49.300;8.880;2023-09-19T00:35:13;1.93;;;1.67;;
65035;SDS011;51603;49.300;8.880;2023-09-19T00:37:40;3.60;;;1.87;;
65035;SDS011;51603;49.300;8.880;2023-09-19T00:40:07;3.43;;;1.50;;
65035;SDS011;51603;49.300;8.880;2023-09-19T00:42:37;3.90;;;1.50;;
65035;SDS011;51603;49.300;8.880;2023-09-19T00:45:07;3.70;;;2.07;;
65035;SDS011;51603;49.300;8.880;2023-09-19T00:47:41;3.50;;;1.60;;
65035;SDS011;51603;49.300;8.880;2023-09-19T00:50:09;2.20;;;1.37;;
65035;SDS011;51603;49.300;8.880;2023-09-19T00:52:36;4.20;;;2.10;;
65035;SDS011;51603;49.300;8.880;2023-09-19T00:55:07;3.00;;;1.77;;
65035;SDS011;51603;49.300;8.880;2023-09-19T00:57:33;5.07;;;1.63;;
65035;SDS011;51603;49.300;8.880;2023-09-19T01:00:01;2.60;;;1.33;;
65035;SDS011;51603;49.300;8.880;2023-09-19T01:02:31;3.17;;;1.37;;
65035;SDS011;51603;49.300;8.880;2023-09-19T01:04:57;2.00;;;1.53;;
65035;SDS011;51603;49.300;8.880;2023-09-19T01:07:24;3.33;;;1.70;;
65035;SDS011;51603;49.300;8.880;2023-09-19T01:09:50;3.07;;;1.77;;
65035;SDS011;51603;49.300;8.880;2023-09-19T01:12:24;1.90;;;1.47;;
65035;SDS011;51603;49.300;8.880;2023-09-19T01:14:59;2.13;;;1.67;;
65035;SDS011;51603;49.300;8.880;2023-09-19T01:17:46;2.80;;;1.30;;
65035;SDS011;51603;49.300;8.880;2023-09-19T01:20:27;4.97;;;1.83;;
65035;SDS011;51603;49.300;8.880;2023-09-19T01:29:17;2.93;;;1.67;;
65035;SDS011;51603;49.300;8.880;2023-09-19T01:32:04;2.80;;;1.97;;
65035;SDS011;51603;49.300;8.880;2023-09-19T01:37:29;1.80;;;1.53;;
65035;SDS011;51603;49.300;8.880;2023-09-19T01:40:00;1.93;;;1.60;;
65035;SDS011;51603;49.300;8.880;2023-09-19T01:45:47;7.73;;;1.70;;
65035;SDS011;51603;49.300;8.880;2023-09-19T01:48:42;5.20;;;1.90;;
65035;SDS011;51603;49.300;8.880;2023-09-19T01:51:18;3.20;;;1.90;;
65035;SDS011;51603;49.300;8.880;2023-09-19T01:53:51;3.37;;;1.40;;
65035;SDS011;51603;49.300;8.880;2023-09-19T01:56:30;1.97;;;1.37;;
65035;SDS011;51603;49.300;8.880;2023-09-19T01:59:09;1.90;;;1.67;;
65035;SDS011;51603;49.300;8.880;2023-09-19T02:01:38;2.20;;;1.47;;
65035;SDS011;51603;49.300;8.880;2023-09-19T02:04:05;2.67;;;1.37;;
65035;SDS011;51603;49.300;8.880;2023-09-19T02:06:32;3.73;;;1.60;;
65035;SDS011;51603;49.300;8.880;2023-09-19T02:08:58;2.37;;;1.40;;
65035;SDS011;51603;49.300;8.880;2023-09-19T02:11:24;2.33;;;1.30;;
65035;SDS011;51603;49.300;8.880;2023-09-19T02:13:50;2.70;;;1.33;;
65035;SDS011;51603;49.300;8.880;2023-09-19T02:16:19;3.70;;;1.43;;
65035;SDS011;51603;49.300;8.880;2023-09-19T02:18:45;3.10;;;1.40;;
65035;SDS011;51603;49.300;8.880;2023-09-19T02:21:13;3.87;;;1.57;;
65035;SDS011;51603;49.300;8.880;2023-09-19T02:23:40;2.07;;;1.40;;
65035;SDS011;51603;49.300;8.880;2023-09-19T02:26:06;3.73;;;1.50;;
65035;SDS011;51603;49.300;8.880;2023-09-19T02:28:31;1.93;;;1.43;;
65035;SDS011;51603;49.300;8.880;2023-09-19T02:30:57;5.73;;;1.37;;
65035;SDS011;51603;49.300;8.880;2023-09-19T02:33:23;3.20;;;1.37;;
65035;SDS011;51603;49.300;8.880;2023-09-19T02:35:49;2.10;;;1.70;;
65035;SDS011;51603;49.300;8.880;2023-09-19T02:38:15;4.50;;;1.70;;
65035;SDS011;51603;49.300;8.880;2023-09-19T02:40:45;2.63;;;1.30;;
65035;SDS011;51603;49.300;8.880;2023-09-19T02:43:11;2.63;;;1.70;;
65035;SDS011;51603;49.300;8.880;2023-09-19T02:45:37;3.83;;;1.40;;
65035;SDS011;51603;49.300;8.880;2023-09-19T02:48:02;2.80;;;1.10;;
65035;SDS011;51603;49.300;8.880;2023-09-19T02:50:29;5.23;;;1.70;;
65035;SDS011;51603;49.300;8.880;2023-09-19T02:52:54;2.10;;;1.47;;
65035;SDS011;51603;49.300;8.880;2023-09-19T02:55:20;4.30;;;1.80;;
65035;SDS011;51603;49.300;8.880;2023-09-19T02:57:50;4.87;;;1.93;;
65035;SDS011;51603;49.300;8.880;2023-09-19T03:00:18;1.53;;;1.20;;
65035;SDS011;51603;49.300;8.880;2023-09-19T03:02:50;2.57;;;1.50;;
65035;SDS011;51603;49.300;8.880;2023-09-19T03:05:18;4.33;;;1.70;;
65035;SDS011;51603;49.300;8.880;2023-09-19T03:07:46;2.30;;;1.50;;
65035;SDS011;51603;49.300;8.880;2023-09-19T03:10:15;3.83;;;1.53;;
65035;SDS011;51603;49.300;8.880;2023-09-19T03:12:41;2.67;;;2.20;;
65035;SDS011;51603;49.300;8.880;2023-09-19T03:15:07;4.23;;;1.47;;
65035;SDS011;51603;49.300;8.880;2023-09-19T03:17:33;2.17;;;1.60;;
65035;SDS011;51603;49.300;8.880;2023-09-19T03:20:00;2.47;;;1.40;;
65035;SDS011;51603;49.300;8.880;2023-09-19T03:22:26;3.70;;;1.87;;
65035;SDS011;51603;49.300;8.880;2023-09-19T03:24:52;2.30;;;1.90;;
65035;SDS011;51603;49.300;8.880;2023-09-19T03:27:18;4.87;;;2.20;;
65035;SDS011;51603;49.300;8.880;2023-09-19T03:29:43;3.83;;;2.00;;
65035;SDS011;51603;49.300;8.880;2023-09-19T03:32:09;2.43;;;1.57;;
65035;SDS011;51603;49.300;8.880;2023-09-19T03:34:36;8.00;;;3.00;;
65035;SDS011;51603;49.300;8.880;2023-09-19T03:37:08;3.70;;;2.10;;
65035;SDS011;51603;49.300;8.880;2023-09-19T03:39:34;3.33;;;2.00;;
65035;SDS011;51603;49.300;8.880;2023-09-19T03:42:00;3.30;;;2.30;;
65035;SDS011;51603;49.300;8.880;2023-09-19T03:44:26;2.80;;;2.10;;
65035;SDS011;51603;49.300;8.880;2023-09-19T03:46:51;3.40;;;3.07;;
65035;SDS011;51603;49.300;8.880;2023-09-19T03:49:17;2.37;;;1.93;;
65035;SDS011;51603;49.300;8.880;2023-09-19T03:51:42;4.33;;;2.20;;
65035;SDS011;51603;49.300;8.880;2023-09-19T03:54:08;2.47;;;2.17;;
65035;SDS011;51603;49.300;8.880;2023-09-19T03:56:34;8.83;;;2.37;;
65035;SDS011;51603;49.300;8.880;2023-09-19T03:58:59;3.93;;;2.40;;
65035;SDS011;51603;49.300;8.880;2023-09-19T04:01:25;4.00;;;2.60;;
65035;SDS011;51603;49.300;8.880;2023-09-19T04:03:52;3.90;;;2.60;;
65035;SDS011;51603;49.300;8.880;2023-09-19T04:06:18;4.00;;;2.23;;
65035;SDS011;51603;49.300;8.880;2023-09-19T04:08:44;3.17;;;2.40;;
65035;SDS011;51603;49.300;8.880;2023-09-19T04:11:11;6.07;;;2.60;;
65035;SDS011;51603;49.300;8.880;2023-09-19T04:13:37;3.90;;;1.73;;
65035;SDS011;51603;49.300;8.880;2023-09-19T04:16:02;3.70;;;2.23;;
65035;SDS011;51603;49.300;8.880;2023-09-19T04:18:35;8.10;;;2.33;;
65035;SDS011;51603;49.300;8.880;2023-09-19T04:21:03;2.47;;;2.27;;
65035;SDS011;51603;49.300;8.880;2023-09-19T04:23:30;3.50;;;1.93;;
65035;SDS011;51603;49.300;8.880;2023-09-19T04:25:56;4.00;;;3.07;;
65035;SDS011;51603;49.300;8.880;2023-09-19T04:28:22;2.77;;;2.07;;
65035;SDS011;51603;49.300;8.880;2023-09-19T04:30:49;3.57;;;2.13;;
65035;SDS011;51603;49.300;8.880;2023-09-19T04:33:14;4.20;;;2.73;;
65035;SDS011;51603;49.300;8.880;2023-09-19T04:35:40;3.00;;;2.70;;
65035;SDS011;51603;49.300;8.880;2023-09-19T04:38:07;3.50;;;2.40;;
65035;SDS011;51603;49.300;8.880;2023-09-19T04:40:33;2.67;;;2.40;;
65035;SDS011;51603;49.300;8.880;2023-09-19T04:42:59;3.70;;;2.60;;
65035;SDS011;51603;49.300;8.880;2023-09-19T04:45:28;5.07;;;3.43;;
65035;SDS011;51603;49.300;8.880;2023-09-19T04:47:54;3.70;;;2.50;;
65035;SDS011;51603;49.300;8.880;2023-09-19T04:50:19;3.80;;;3.00;;
65035;SDS011;51603;49.300;8.880;2023-09-19T04:52:48;4.60;;;2.63;;
65035;SDS011;51603;49.300;8.880;2023-09-19T04:55:16;6.23;;;2.90;;
65035;SDS011;51603;49.300;8.880;2023-09-19T04:57:46;5.70;;;2.90;;
65035;SDS011;51603;49.300;8.880;2023-09-19T05:00:13;3.47;;;2.57;;
65035;SDS011;51603;49.300;8.880;2023-09-19T05:02:48;5.00;;;3.00;;
65035;SDS011;51603;49.300;8.880;2023-09-19T05:05:17;4.53;;;2.77;;
65035;SDS011;51603;49.300;8.880;2023-09-19T05:07:44;6.30;;;3.50;;
65035;SDS011;51603;49.300;8.880;2023-09-19T05:10:10;3.93;;;2.80;;
65035;SDS011;51603;49.300;8.880;2023-09-19T05:12:37;3.77;;;3.47;;
65035;SDS011;51603;49.300;8.880;2023-09-19T05:15:06;3.77;;;2.90;;
65035;SDS011;51603;49.300;8.880;2023-09-19T05:17:32;4.07;;;3.00;;
65035;SDS011;51603;49.300;8.880;2023-09-19T05:19:59;3.30;;;2.77;;
65035;SDS011;51603;49.300;8.880;2023-09-19T05:22:40;3.37;;;3.07;;
65035;SDS011;51603;49.300;8.880;2023-09-19T05:25:08;4.17;;;3.23;;
65035;SDS011;51603;49.300;8.880;2023-09-19T05:27:34;2.97;;;2.70;;
65035;SDS011;51603;49.300;8.880;2023-09-19T05:30:00;4.23;;;2.97;;
65035;SDS011;51603;49.300;8.880;2023-09-19T05:32:26;7.90;;;3.37;;
65035;SDS011;51603;49.300;8.880;2023-09-19T05:34:51;5.17;;;2.97;;
65035;SDS011;51603;49.300;8.880;2023-09-19T05:37:18;3.90;;;2.90;;
65035;SDS011;51603;49.300;8.880;2023-09-19T05:39:44;5.13;;;2.90;;
65035;SDS011;51603;49.300;8.880;2023-09-19T05:42:10;4.40;;;2.70;;
65035;SDS011;51603;49.300;8.880;2023-09-19T05:44:35;4.40;;;2.70;;
65035;SDS011;51603;49.300;8.880;2023-09-19T05:47:01;5.27;;;2.70;;
65035;SDS011;51603;49.300;8.880;2023-09-19T05:49:30;4.63;;;2.27;;
65035;SDS011;51603;49.300;8.880;2023-09-19T05:51:55;4.10;;;2.73;;
65035;SDS011;51603;49.300;8.880;2023-09-19T05:54:23;4.03;;;2.43;;
65035;SDS011;51603;49.300;8.880;2023-09-19T05:56:49;3.50;;;2.70;;
65035;SDS011;51603;49.300;8.880;2023-09-19T05:59:17;4.03;;;2.63;;
65035;SDS011;51603;49.300;8.880;2023-09-19T06:01:43;4.23;;;2.33;;
65035;SDS011;51603;49.300;8.880;2023-09-19T06:04:08;5.60;;;2.23;;
65035;SDS011;51603;49.300;8.880;2023-09-19T06:06:34;3.90;;;2.30;;
65035;SDS011;51603;49.300;8.880;2023-09-19T06:09:03;3.37;;;2.60;;
65035;SDS011;51603;49.300;8.880;2023-09-19T06:11:30;4.00;;;3.10;;
65035;SDS011;51603;49.300;8.880;2023-09-19T06:13:59;4.60;;;3.07;;
65035;SDS011;51603;49.300;8.880;2023-09-19T06:16:27;6.17;;;2.77;;
65035;SDS011;51603;49.300;8.880;2023-09-19T06:18:53;4.17;;;2.80;;
65035;SDS011;51603;49.300;8.880;2023-09-19T06:21:20;3.10;;;2.53;;
65035;SDS011;51603;49.300;8.880;2023-09-19T06:23:47;5.50;;;3.23;;
65035;SDS011;51603;49.300;8.880;2023-09-19T06:26:12;4.03;;;2.87;;
65035;SDS011;51603;49.300;8.880;2023-09-19T06:28:38;6.33;;;2.43;;
65035;SDS011;51603;49.300;8.880;2023-09-19T06:31:03;4.00;;;2.70;;
65035;SDS011;51603;49.300;8.880;2023-09-19T06:33:34;5.60;;;2.70;;
65035;SDS011;51603;49.300;8.880;2023-09-19T06:36:03;4.53;;;2.10;;
65035;SDS011;51603;49.300;8.880;2023-09-19T06:38:29;8.27;;;2.87;;
65035;SDS011;51603;49.300;8.880;2023-09-19T06:40:56;2.73;;;2.20;;
65035;SDS011;51603;49.300;8.880;2023-09-19T06:43:22;6.47;;;2.33;;
65035;SDS011;51603;49.300;8.880;2023-09-19T06:45:48;3.77;;;2.40;;
65035;SDS011;51603;49.300;8.880;2023-09-19T06:48:15;4.33;;;2.50;;
65035;SDS011;51603;49.300;8.880;2023-09-19T06:50:40;3.30;;;2.20;;
65035;SDS011;51603;49.300;8.880;2023-09-19T06:53:09;4.93;;;2.47;;
65035;SDS011;51603;49.300;8.880;2023-09-19T06:55:34;4.13;;;2.80;;
65035;SDS011;51603;49.300;8.880;2023-09-19T06:58:01;11.27;;;3.00;;
65035;SDS011;51603;49.300;8.880;2023-09-19T07:00:27;5.47;;;2.50;;
65035;SDS011;51603;49.300;8.880;2023-09-19T07:05:36;4.40;;;2.47;;
65035;SDS011;51603;49.300;8.880;2023-09-19T07:08:07;5.27;;;2.83;;
65035;SDS011;51603;49.300;8.880;2023-09-19T07:10:37;3.60;;;2.53;;
65035;SDS011;51603;49.300;8.880;2023-09-19T07:13:05;4.93;;;3.10;;
65035;SDS011;51603;49.300;8.880;2023-09-19T07:15:35;6.90;;;3.20;;
65035;SDS011;51603;49.300;8.880;2023-09-19T07:18:04;3.47;;;3.17;;
65035;SDS011;51603;49.300;8.880;2023-09-19T07:20:30;5.37;;;3.50;;
65035;SDS011;51603;49.300;8.880;2023-09-19T07:22:57;4.17;;;3.63;;
65035;SDS011;51603;49.300;8.880;2023-09-19T07:25:26;4.17;;;3.67;;
65035;SDS011;51603;49.300;8.880;2023-09-19T07:27:55;4.33;;;3.30;;
65035;SDS011;51603;49.300;8.880;2023-09-19T07:30:21;9.47;;;3.77;;
65035;SDS011;51603;49.300;8.880;2023-09-19T07:32:47;3.93;;;2.40;;
65035;SDS011;51603;49.300;8.880;2023-09-19T07:35:13;6.23;;;2.30;;
65035;SDS011;51603;49.300;8.880;2023-09-19T07:37:39;4.30;;;2.80;;
65035;SDS011;51603;49.300;8.880;2023-09-19T07:40:05;3.60;;;2.00;;
65035;SDS011;51603;49.300;8.880;2023-09-19T07:42:34;6.20;;;1.90;;
65035;SDS011;51603;49.300;8.880;2023-09-19T07:45:01;2.23;;;1.83;;
65035;SDS011;51603;49.300;8.880;2023-09-19T07:47:28;4.87;;;2.40;;
65035;SDS011;51603;49.300;8.880;2023-09-19T07:49:55;6.33;;;2.10;;
65035;SDS011;51603;49.300;8.880;2023-09-19T07:52:20;3.20;;;1.73;;
65035;SDS011;51603;49.300;8.880;2023-09-19T07:54:47;5.63;;;2.50;;
65035;SDS011;51603;49.300;8.880;2023-09-19T07:57:14;3.30;;;2.03;;
65035;SDS011;51603;49.300;8.880;2023-09-19T07:59:40;5.43;;;2.03;;
65035;SDS011;51603;49.300;8.880;2023-09-19T08:02:07;7.17;;;1.90;;
65035;SDS011;51603;49.300;8.880;2023-09-19T08:04:40;3.93;;;1.80;;
65035;SDS011;51603;49.300;8.880;2023-09-19T08:07:11;5.30;;;1.43;;
65035;SDS011;51603;49.300;8.880;2023-09-19T08:09:38;4.17;;;1.93;;
65035;SDS011;51603;49.300;8.880;2023-09-19T08:12:04;2.20;;;1.40;;
65035;SDS011;51603;49.300;8.880;2023-09-19T08:14:33;5.70;;;2.10;;
65035;SDS011;51603;49.300;8.880;2023-09-19T08:16:58;2.33;;;1.53;;
65035;SDS011;51603;49.300;8.880;2023-09-19T08:19:25;5.00;;;1.77;;
65035;SDS011;51603;49.300;8.880;2023-09-19T08:21:55;3.60;;;1.80;;
65035;SDS011;51603;49.300;8.880;2023-09-19T08:24:23;2.20;;;1.23;;
65035;SDS011;51603;49.300;8.880;2023-09-19T08:26:53;3.50;;;1.73;;
65035;SDS011;51603;49.300;8.880;2023-09-19T08:29:23;5.83;;;1.83;;
65035;SDS011;51603;49.300;8.880;2023-09-19T08:31:53;3.07;;;1.67;;
65035;SDS011;51603;49.300;8.880;2023-09-19T08:34:19;3.40;;;1.93;;
65035;SDS011;51603;49.300;8.880;2023-09-19T08:36:46;2.70;;;1.60;;
65035;SDS011;51603;49.300;8.880;2023-09-19T08:39:13;5.80;;;2.10;;
65035;SDS011;51603;49.300;8.880;2023-09-19T08:41:38;2.90;;;1.37;;
65035;SDS011;51603;49.300;8.880;2023-09-19T08:44:04;5.63;;;1.90;;
65035;SDS011;51603;49.300;8.880;2023-09-19T08:46:30;2.70;;;1.87;;
65035;SDS011;51603;49.300;8.880;2023-09-19T08:49:07;4.10;;;2.03;;
65035;SDS011;51603;49.300;8.880;2023-09-19T08:51:43;5.93;;;1.70;;
65035;SDS011;51603;49.300;8.880;2023-09-19T08:54:21;3.60;;;1.70;;
65035;SDS011;51603;49.300;8.880;2023-09-19T08:56:51;5.77;;;1.23;;
65035;SDS011;51603;49.300;8.880;2023-09-19T08:59:21;2.77;;;1.37;;
65035;SDS011;51603;49.300;8.880;2023-09-19T09:01:49;3.33;;;1.40;;
65035;SDS011;51603;49.300;8.880;2023-09-19T09:04:18;3.87;;;1.40;;
65035;SDS011;51603;49.300;8.880;2023-09-19T09:06:44;4.97;;;1.50;;
65035;SDS011;51603;49.300;8.880;2023-09-19T09:09:13;2.03;;;1.47;;
65035;SDS011;51603;49.300;8.880;2023-09-19T09:11:39;3.50;;;1.77;;
65035;SDS011;51603;49.300;8.880;2023-09-19T09:14:05;3.20;;;1.43;;
65035;SDS011;51603;49.300;8.880;2023-09-19T09:16:32;4.90;;;2.23;;
65035;SDS011;51603;49.300;8.880;2023-09-19T09:18:58;6.80;;;2.13;;
65035;SDS011;51603;49.300;8.880;2023-09-19T09:21:25;6.70;;;1.90;;
65035;SDS011;51603;49.300;8.880;2023-09-19T09:23:51;3.70;;;1.67;;
65035;SDS011;51603;49.300;8.880;2023-09-19T09:26:17;2.53;;;1.40;;
65035;SDS011;51603;49.300;8.880;2023-09-19T09:29:03;4.10;;;1.80;;
65035;SDS011;51603;49.300;8.880;2023-09-19T09:31:28;4.83;;;1.67;;
65035;SDS011;51603;49.300;8.880;2023-09-19T09:33:55;3.57;;;1.77;;
65035;SDS011;51603;49.300;8.880;2023-09-19T09:36:34;6.10;;;2.07;;
65035;SDS011;51603;49.300;8.880;2023-09-19T09:39:05;4.20;;;1.57;;
65035;SDS011;51603;49.300;8.880;2023-09-19T09:41:50;5.97;;;2.00;;
65035;SDS011;51603;49.300;8.880;2023-09-19T09:44:16;4.20;;;1.73;;
65035;SDS011;51603;49.300;8.880;2023-09-19T09:46:44;3.40;;;1.80;;
65035;SDS011;51603;49.300;8.880;2023-09-19T09:49:18;4.23;;;1.50;;
65035;SDS011;51603;49.300;8.880;2023-09-19T09:52:01;4.00;;;1.40;;
65035;SDS011;51603;49.300;8.880;2023-09-19T09:54:32;2.70;;;1.60;;
65035;SDS011;51603;49.300;8.880;2023-09-19T09:57:07;5.53;;;1.60;;
65035;SDS011;51603;49.300;8.880;2023-09-19T10:02:19;4.70;;;1.93;;
65035;SDS011;51603;49.300;8.880;2023-09-19T10:04:52;2.73;;;1.70;;
65035;SDS011;51603;49.300;8.880;2023-09-19T10:07:28;3.80;;;1.53;;
65035;SDS011;51603;49.300;8.880;2023-09-19T10:09:58;3.87;;;1.90;;
65035;SDS011;51603;49.300;8.880;2023-09-19T10:12:31;3.73;;;1.43;;
65035;SDS011;51603;49.300;8.880;2023-09-19T10:15:00;3.17;;;1.50;;
65035;SDS011;51603;49.300;8.880;2023-09-19T10:17:27;6.57;;;2.13;;
65035;SDS011;51603;49.300;8.880;2023-09-19T10:19:55;3.37;;;2.00;;
65035;SDS011;51603;49.300;8.880;2023-09-19T10:22:26;5.77;;;2.13;;
65035;SDS011;51603;49.300;8.880;2023-09-19T10:24:56;4.27;;;1.47;;
65035;SDS011;51603;49.300;8.880;2023-09-19T10:27:25;3.23;;;1.60;;
65035;SDS011;51603;49.300;8.880;2023-09-19T10:29:51;2.50;;;1.30;;
65035;SDS011;51603;49.300;8.880;2023-09-19T10:32:22;3.70;;;1.40;;
65035;SDS011;51603;49.300;8.880;2023-09-19T10:34:49;2.60;;;1.80;;
65035;SDS011;51603;49.300;8.880;2023-09-19T10:37:18;3.70;;;1.87;;
65035;SDS011;51603;49.300;8.880;2023-09-19T10:39:47;3.90;;;1.80;;
65035;SDS011;51603;49.300;8.880;2023-09-19T10:42:16;2.80;;;1.63;;
65035;SDS011;51603;49.300;8.880;2023-09-19T10:44:45;3.20;;;1.70;;
65035;SDS011;51603;49.300;8.880;2023-09-19T10:47:18;3.60;;;1.50;;
65035;SDS011;51603;49.300;8.880;2023-09-19T10:49:45;2.70;;;1.30;;
65035;SDS011;51603;49.300;8.880;2023-09-19T10:52:12;5.00;;;1.47;;
65035;SDS011;51603;49.300;8.880;2023-09-19T10:54:45;5.77;;;1.70;;
65035;SDS011;51603;49.300;8.880;2023-09-19T10:57:20;4.13;;;1.97;;
65035;SDS011;51603;49.300;8.880;2023-09-19T11:00:02;4.37;;;1.83;;
65035;SDS011;51603;49.300;8.880;2023-09-19T11:05:37;3.00;;;1.53;;
65035;SDS011;51603;49.300;8.880;2023-09-19T11:08:06;4.27;;;1.93;;
65035;SDS011;51603;49.300;8.880;2023-09-19T11:10:48;3.07;;;1.40;;
65035;SDS011;51603;49.300;8.880;2023-09-19T11:13:28;8.97;;;2.07;;
65035;SDS011;51603;49.300;8.880;2023-09-19T11:26:50;4.57;;;1.50;;
65035;SDS011;51603;49.300;8.880;2023-09-19T11:29:26;1.97;;;1.20;;
65035;SDS011;51603;49.300;8.880;2023-09-19T11:31:54;2.93;;;1.37;;
65035;SDS011;51603;49.300;8.880;2023-09-19T11:37:02;2.43;;;1.40;;
65035;SDS011;51603;49.300;8.880;2023-09-19T11:39:29;3.80;;;2.10;;
65035;SDS011;51603;49.300;8.880;2023-09-19T11:41:55;3.87;;;1.63;;
65035;SDS011;51603;49.300;8.880;2023-09-19T11:46:52;5.53;;;1.90;;
65035;SDS011;51603;49.300;8.880;2023-09-19T11:49:18;3.33;;;1.53;;
65035;SDS011;51603;49.300;8.880;2023-09-19T11:51:51;2.93;;;1.50;;
65035;SDS011;51603;49.300;8.880;2023-09-19T11:54:17;3.17;;;1.63;;
65035;SDS011;51603;49.300;8.880;2023-09-19T11:56:44;2.70;;;1.40;;
65035;SDS011;51603;49.300;8.880;2023-09-19T11:59:10;4.97;;;1.80;;
65035;SDS011;51603;49.300;8.880;2023-09-19T12:01:37;4.77;;;1.80;;
65035;SDS011;51603;49.300;8.880;2023-09-19T12:04:10;4.07;;;1.70;;
65035;SDS011;51603;49.300;8.880;2023-09-19T12:06:36;2.60;;;1.60;;
65035;SDS011;51603;49.300;8.880;2023-09-19T12:09:04;2.27;;;1.33;;
65035;SDS011;51603;49.300;8.880;2023-09-19T12:11:40;1.80;;;1.40;;
65035;SDS011;51603;49.300;8.880;2023-09-19T12:14:08;2.80;;;1.40;;
65035;SDS011;51603;49.300;8.880;2023-09-19T12:16:34;2.50;;;1.60;;
65035;SDS011;51603;49.300;8.880;2023-09-19T12:19:17;4.20;;;1.37;;
65035;SDS011;51603;49.300;8.880;2023-09-19T12:21:53;2.70;;;1.30;;
65035;SDS011;51603;49.300;8.880;2023-09-19T12:24:32;3.50;;;1.23;;
65035;SDS011;51603;49.300;8.880;2023-09-19T12:27:03;4.67;;;1.50;;
65035;SDS011;51603;49.300;8.880;2023-09-19T12:29:31;3.80;;;1.27;;
65035;SDS011;51603;49.300;8.880;2023-09-19T12:32:06;1.80;;;1.17;;
65035;SDS011;51603;49.300;8.880;2023-09-19T12:34:32;4.47;;;1.50;;
65035;SDS011;51603;49.300;8.880;2023-09-19T12:37:07;2.23;;;1.30;;
65035;SDS011;51603;49.300;8.880;2023-09-19T12:39:38;2.83;;;1.03;;
65035;SDS011;51603;49.300;8.880;2023-09-19T12:42:06;2.87;;;1.27;;
65035;SDS011;51603;49.300;8.880;2023-09-19T12:44:34;2.30;;;1.27;;
65035;SDS011;51603;49.300;8.880;2023-09-19T12:47:07;4.50;;;1.40;;
65035;SDS011;51603;49.300;8.880;2023-09-19T12:49:34;3.60;;;1.10;;
65035;SDS011;51603;49.300;8.880;2023-09-19T12:52:00;3.10;;;1.67;;
65035;SDS011;51603;49.300;8.880;2023-09-19T12:54:36;3.60;;;1.27;;
65035;SDS011;51603;49.300;8.880;2023-09-19T12:57:03;3.30;;;1.30;;
65035;SDS011;51603;49.300;8.880;2023-09-19T12:59:30;2.20;;;1.20;;
65035;SDS011;51603;49.300;8.880;2023-09-19T13:02:03;2.90;;;1.40;;
65035;SDS011;51603;49.300;8.880;2023-09-19T13:04:32;3.10;;;1.27;;
65035;SDS011;51603;49.300;8.880;2023-09-19T13:06:59;1.87;;;1.20;;
65035;SDS011;51603;49.300;8.880;2023-09-19T13:09:30;2.67;;;1.33;;
65035;SDS011;51603;49.300;8.880;2023-09-19T13:12:03;3.00;;;1.23;;
65035;SDS011;51603;49.300;8.880;2023-09-19T13:14:31;3.60;;;1.37;;
65035;SDS011;51603;49.300;8.880;2023-09-19T13:17:08;3.97;;;1.63;;
65035;SDS011;51603;49.300;8.880;2023-09-19T13:19:51;3.83;;;1.77;;
65035;SDS011;51603;49.300;8.880;2023-09-19T13:22:40;5.53;;;1.57;;
65035;SDS011;51603;49.300;8.880;2023-09-19T13:25:20;2.90;;;1.27;;
65035;SDS011;51603;49.300;8.880;2023-09-19T13:27:47;2.30;;;1.17;;
65035;SDS011;51603;49.300;8.880;2023-09-19T13:30:16;2.47;;;0.90;;
65035;SDS011;51603;49.300;8.880;2023-09-19T13:32:42;2.90;;;1.50;;
65035;SDS011;51603;49.300;8.880;2023-09-19T13:35:08;3.70;;;1.80;;
65035;SDS011;51603;49.300;8.880;2023-09-19T13:37:35;3.70;;;1.90;;
65035;SDS011;51603;49.300;8.880;2023-09-19T13:40:03;2.00;;;1.00;;
65035;SDS011;51603;49.300;8.880;2023-09-19T13:42:30;2.10;;;1.40;;
65035;SDS011;51603;49.300;8.880;2023-09-19T13:44:56;4.00;;;1.50;;
65035;SDS011;51603;49.300;8.880;2023-09-19T13:47:22;3.60;;;1.50;;
65035;SDS011;51603;49.300;8.880;2023-09-19T13:49:49;2.80;;;1.23;;
65035;SDS011;51603;49.300;8.880;2023-09-19T13:52:19;2.70;;;1.37;;
65035;SDS011;51603;49.300;8.880;2023-09-19T13:54:45;2.83;;;1.30;;
65035;SDS011;51603;49.300;8.880;2023-09-19T13:57:11;1.97;;;1.20;;
65035;SDS011;51603;49.300;8.880;2023-09-19T13:59:36;2.10;;;1.20;;
65035;SDS011;51603;49.300;8.880;2023-09-19T14:02:02;2.10;;;1.30;;
65035;SDS011;51603;49.300;8.880;2023-09-19T14:04:30;2.40;;;1.00;;
65035;SDS011;51603;49.300;8.880;2023-09-19T14:06:56;2.40;;;1.37;;
65035;SDS011;51603;49.300;8.880;2023-09-19T14:09:22;2.37;;;1.33;;
65035;SDS011;51603;49.300;8.880;2023-09-19T14:11:49;5.03;;;1.73;;
65035;SDS011;51603;49.300;8.880;2023-09-19T14:14:17;2.87;;;1.27;;
65035;SDS011;51603;49.300;8.880;2023-09-19T14:16:43;2.33;;;1.30;;
65035;SDS011;51603;49.300;8.880;2023-09-19T14:19:09;3.27;;;1.40;;
65035;SDS011;51603;49.300;8.880;2023-09-19T14:21:34;1.80;;;1.37;;
65035;SDS011;51603;49.300;8.880;2023-09-19T14:24:01;4.23;;;1.30;;
65035;SDS011;51603;49.300;8.880;2023-09-19T14:26:27;2.80;;;1.60;;
65035;SDS011;51603;49.300;8.880;2023-09-19T14:28:53;2.30;;;1.20;;
65035;SDS011;51603;49.300;8.880;2023-09-19T14:31:18;3.83;;;1.10;;
65035;SDS011;51603;49.300;8.880;2023-09-19T14:33:44;1.60;;;1.00;;
65035;SDS011;51603;49.300;8.880;2023-09-19T14:36:10;3.30;;;1.30;;
65035;SDS011;51603;49.300;8.880;2023-09-19T14:38:36;6.97;;;1.20;;
65035;SDS011;51603;49.300;8.880;2023-09-19T14:41:03;2.00;;;1.40;;
65035;SDS011;51603;49.300;8.880;2023-09-19T14:43:29;3.00;;;1.40;;
65035;SDS011;51603;49.300;8.880;2023-09-19T14:46:05;2.00;;;1.27;;
65035;SDS011;51603;49.300;8.880;2023-09-19T14:48:34;1.80;;;1.10;;
65035;SDS011;51603;49.300;8.880;2023-09-19T14:51:06;2.37;;;1.50;;
65035;SDS011;51603;49.300;8.880;2023-09-19T14:53:37;2.50;;;1.33;;
65035;SDS011;51603;49.300;8.880;2023-09-19T14:56:03;3.27;;;1.13;;
65035;SDS011;51603;49.300;8.880;2023-09-19T14:58:29;2.60;;;1.40;;
65035;SDS011;51603;49.300;8.880;2023-09-19T15:01:28;2.67;;;1.80;;
65035;SDS011;51603;49.300;8.880;2023-09-19T15:03:47;3.23;;;1.30;;
65035;SDS011;51603;49.300;8.880;2023-09-19T15:06:14;4.07;;;1.43;;
65035;SDS011;51603;49.300;8.880;2023-09-19T15:08:43;3.73;;;1.33;;
65035;SDS011;51603;49.300;8.880;2023-09-19T15:11:19;2.83;;;1.07;;
65035;SDS011;51603;49.300;8.880;2023-09-19T15:13:45;1.50;;;0.90;;
65035;SDS011;51603;49.300;8.880;2023-09-19T15:16:12;4.33;;;1.33;;
65035;SDS011;51603;49.300;8.880;2023-09-19T15:18:39;2.50;;;1.13;;
65035;SDS011;51603;49.300;8.880;2023-09-19T15:21:07;4.17;;;1.40;;
65035;SDS011;51603;49.300;8.880;2023-09-19T15:23:34;2.50;;;1.43;;
65035;SDS011;51603;49.300;8.880;2023-09-19T15:26:18;1.60;;;1.03;;
65035;SDS011;51603;49.300;8.880;2023-09-19T15:28:45;3.23;;;1.20;;
65035;SDS011;51603;49.300;8.880;2023-09-19T15:31:11;3.70;;;1.93;;
65035;SDS011;51603;49.300;8.880;2023-09-19T15:33:37;2.23;;;1.10;;